This is the latest recevied weather packets stored in our database for station/object SA7AHC. If no packets are shown the sender has not sent any weather packets the latest 10 day(s).
| Time | Temp. | Humidity | Pressure | Rain* | Wind** | Luminosity | Snow |
|---|---|---|---|---|---|---|---|
| 1777616375 | 10.56° C | 69% | 1027 hPa | 0 mm | - | 158 W/m² | - |
| 1777615776 | 9.44° C | 74% | 1026.9 hPa | 0 mm | - | 290 W/m² | - |
| 1777615174 | 8.89° C | 77% | 1026.8 hPa | 0 mm | - | 149 W/m² | - |
| 1777614573 | 8.33° C | 81% | 1026.8 hPa | 0 mm | - | 30 W/m² | - |
| 1777613979 | 7.78° C | 85% | 1026.8 hPa | 0 mm | - | 28 W/m² | - |
| 1777613376 | 6.67° C | 90% | 1026.7 hPa | 0 mm | - | 28 W/m² | - |
| 1777612776 | 6.11° C | 93% | 1026.7 hPa | 0 mm | - | 26 W/m² | - |
| 1777612176 | 5.56° C | 94% | 1026.7 hPa | 0 mm | - | 26 W/m² | - |
| 1777611581 | 5° C | 95% | 1026.7 hPa | 0 mm | - | 25 W/m² | - |
| 1777610975 | 4.44° C | 95% | 1026.6 hPa | 0 mm | - | 23 W/m² | - |
| 1777610381 | 3.89° C | 94% | 1026.6 hPa | 0 mm | - | 21 W/m² | - |
| 1777609776 | 3.33° C | 94% | 1026.4 hPa | 0 mm | - | 19 W/m² | - |
| 1777609181 | 3.33° C | 94% | 1026.5 hPa | 0 mm | - | 18 W/m² | - |
| 1777608580 | 3.33° C | 94% | 1026.5 hPa | 0 mm | - | 16 W/m² | - |
| 1777607975 | 3.33° C | 94% | 1026.4 hPa | 0 mm | - | 14 W/m² | - |
| 1777607379 | 2.78° C | 93% | 1026.5 hPa | 0 mm | - | 12 W/m² | - |
| 1777606776 | 2.78° C | 93% | 1026.5 hPa | 0 mm | - | 9 W/m² | - |
| 1777606177 | 2.78° C | 93% | 1026.4 hPa | 0 mm | - | 7 W/m² | - |
| 1777605574 | 2.78° C | 92% | 1026.4 hPa | 0 mm | - | 5 W/m² | - |
| 1777604978 | 2.78° C | 92% | 1026.4 hPa | 0 mm | - | 0 W/m² | - |
| 1777604366 | 3.33° C | 91% | 1026.5 hPa | 0 mm | - | 0 W/m² | - |
| 1777603751 | 3.33° C | 92% | 1026.7 hPa | 0 mm | - | 0 W/m² | - |
| 1777603150 | 3.33° C | 91% | 1026.8 hPa | 0 mm | - | 0 W/m² | - |
| 1777602551 | 3.89° C | 91% | 1026.8 hPa | 0 mm | - | 0 W/m² | - |
| 1777601948 | 4.44° C | 91% | 1026.9 hPa | 0 mm | - | 0 W/m² | - |
* Rain latest hour (hover to see other rain measurements)
** Current wind speed in m/s (hover to see current wind gust speed)